FSIA/SEZ METAR and TAF weather

Enter ICAO airport designator
Station Type Date Time Source
FSIA METAR 2019/02/23 23:00 UTC NOAA

FSIA 232300Z AUTO 28005KT 9999 FEW068/// OVC084/// 26/24 Q1009


Station Type Date Time Source
FSIA Decoded METAR 2019/02/23 23:00 UTC NOAA

Seychelles Inter-National Airport, Seychelles (FSIA) 04-40S 055-31E 3M
Feb 23, 2019 - 06:00 PM EST / 2019.02.23 2300 UTC
Wind: from the W (280 degrees) at 6 MPH (5 KT):0
Visibility: greater than 7 mile(s):0
Sky conditions: overcast
Temperature: 78 F (26 C)
Dew Point: 75 F (24 C)
Relative Humidity: 88%
Pressure (altimeter): 29.80 in. Hg (1009 hPa)
ob: FSIA 232300Z AUTO 28005KT 9999 FEW068/// OVC084/// 26/24 Q1009
cycle: 23

Station Type Date Time Source
FSIA TAF 2019/02/23 18:12 UTC NOAA

TAF FSIA 231705Z 2318/2418 34010KT 9999 FEW016CB BKN020
TEMPO 2318/2324 35010G20KT 8000 SHRA FEW010 FEW015CB BKN018
TEMPO 2402/2408 35010G20KT 5000 RA FEW009 FEW014CB BKN018


Example: see airport list